Time;durP1;ratioP1;P1;durP2;ratioP2;P2;SDS_P1;SDS_P2;PMS_P1;PMS_P2;Temp;Humidity;BMP_temperature;BMP_pressure;BME280_temperature;BME280_humidity;BME280_pressure;Samples;Min_cycle;Max_cycle;Signal;HPM_P1;HPM_P2
2022/05/28 00:00:40;;;;;;;;;10.00;6.75;;;;;15.85;58.68;102067.34;5061726;28;45417;-70
2022/05/28 00:03:05;;;;;;;;;6.00;6.00;;;;;15.82;58.88;102060.41;5057578;28;45476;-70
2022/05/28 00:05:31;;;;;;;;;7.50;5.25;;;;;15.81;58.57;102053.44;5056670;28;45385;-71
2022/05/28 00:07:57;;;;;;;;;7.75;6.75;;;;;15.77;59.58;102050.94;5061636;28;45298;-71
2022/05/28 00:10:22;;;;;;;;;8.50;8.00;;;;;15.74;59.39;102053.66;5060189;28;47568;-71
2022/05/28 00:12:48;;;;;;;;;11.00;7.00;;;;;15.72;60.86;102048.47;5061428;28;45318;-71
2022/05/28 00:15:14;;;;;;;;;6.25;6.25;;;;;15.69;60.16;102043.31;5061817;28;45255;-71
2022/05/28 00:17:40;;;;;;;;;6.50;6.00;;;;;15.69;60.13;102042.44;5061481;28;45212;-71
2022/05/28 00:20:07;;;;;;;;;3.75;1.00;;;;;15.66;61.15;102047.78;5061232;28;45173;-70
2022/05/28 00:22:39;;;;;;;;;10.50;6.25;;;;;15.62;61.61;102043.53;5060213;28;45678;-71
2022/05/28 00:25:06;;;;;;;;;6.75;6.50;;;;;15.55;61.36;102052.41;5061815;28;45232;-70
2022/05/28 00:27:31;;;;;;;;;11.50;7.00;;;;;15.48;61.34;102038.63;5061176;28;45604;-70
2022/05/28 00:29:57;;;;;;;;;7.00;5.75;;;;;15.45;61.22;102047.44;5061488;28;46654;-70
2022/05/28 00:32:22;;;;;;;;;7.00;6.00;;;;;15.42;61.05;102042.28;5061121;28;45340;-70
2022/05/28 00:34:48;;;;;;;;;10.50;8.00;;;;;15.40;61.16;102040.56;5061710;28;45306;-70
2022/05/28 00:37:13;;;;;;;;;9.00;5.75;;;;;15.39;60.76;102036.22;5061054;28;45240;-70
2022/05/28 00:39:38;;;;;;;;;10.75;6.50;;;;;15.37;62.84;102031.03;5061253;28;45335;-70
2022/05/28 00:42:04;;;;;;;;;8.50;7.00;;;;;15.37;62.43;102038.91;5060987;28;45367;-70
2022/05/28 00:44:29;;;;;;;;;10.00;7.75;;;;;15.33;61.50;102033.78;5059810;28;45456;-70
2022/05/28 00:46:57;;;;;;;;;8.00;6.50;;;;;15.31;61.49;102031.22;5060869;28;45256;-70
2022/05/28 00:49:27;;;;;;;;;7.75;7.75;;;;;15.31;61.35;102033.81;5061113;28;45807;-69
2022/05/28 00:51:56;;;;;;;;;13.00;8.50;;;;;15.35;61.71;102031.97;5060630;28;45651;-69
2022/05/28 00:54:22;;;;;;;;;10.00;9.00;;;;;15.35;61.82;102029.38;5061347;28;45479;-71
2022/05/28 00:56:49;;;;;;;;;10.75;9.00;;;;;15.33;61.51;102024.16;5060796;28;45462;-70
2022/05/28 00:59:15;;;;;;;;;9.75;7.50;;;;;15.33;61.68;102024.16;5059480;28;47088;-70
2022/05/28 01:01:41;;;;;;;;;11.00;9.50;;;;;15.32;62.59;102032.06;5060984;28;45183;-70
2022/05/28 01:04:27;;;;;;;;;11.00;8.00;;;;;15.32;61.58;102030.31;5060852;28;45441;-68
2022/05/28 01:06:55;;;;;;;;;11.00;7.75;;;;;15.35;61.49;102034.59;5060434;28;45226;-68
2022/05/28 01:09:39;;;;;;;;;10.25;7.00;;;;;15.36;61.27;102026.69;5060640;28;45339;-68
2022/05/28 01:12:20;;;;;;;;;11.50;8.25;;;;;15.35;61.05;102027.59;5060474;28;45675;-68
2022/05/28 01:14:55;;;;;;;;;9.75;7.00;;;;;15.36;61.28;102023.22;5060987;28;45368;-67
2022/05/28 01:17:41;;;;;;;;;9.00;8.25;;;;;15.29;63.35;102030.41;5060494;28;45268;-67
2022/05/28 01:20:18;;;;;;;;;8.00;7.00;;;;;15.21;62.05;102025.34;5092887;27;48236;-66
2022/05/28 01:22:59;;;;;;;;;12.25;7.00;;;;;15.18;61.87;102024.56;5060599;28;45289;-66
2022/05/28 01:25:41;;;;;;;;;13.00;10.50;;;;;15.16;62.47;102018.50;5060554;28;45363;-66
2022/05/28 01:28:14;;;;;;;;;9.25;8.00;;;;;15.11;62.48;102010.78;5060649;28;45362;-66
2022/05/28 01:30:42;;;;;;;;;6.75;6.50;;;;;15.11;62.53;102010.78;5060231;28;45515;-66
2022/05/28 01:33:11;;;;;;;;;7.50;7.50;;;;;15.11;62.14;102009.91;5060108;28;45250;-66
2022/05/28 01:35:38;;;;;;;;;6.25;6.00;;;;;15.06;63.45;102010.03;5060189;28;45291;-66
2022/05/28 01:38:06;;;;;;;;;8.25;5.50;;;;;15.01;63.66;102017.13;5060165;28;45486;-67
2022/05/28 01:40:34;;;;;;;;;10.50;6.75;;;;;14.98;63.03;102008.50;5059596;28;45401;-66
2022/05/28 01:43:04;;;;;;;;;9.50;8.00;;;;;14.96;63.18;102007.69;5060128;28;45758;-67
2022/05/28 01:45:31;;;;;;;;;7.75;7.25;;;;;14.96;62.80;102010.31;5047132;28;45306;-66
2022/05/28 01:48:02;;;;;;;;;9.25;6.50;;;;;14.98;63.61;102008.50;5059757;28;45421;-66
2022/05/28 01:50:31;;;;;;;;;14.75;8.75;;;;;14.94;63.37;102002.50;5059290;28;45331;-66
2022/05/28 01:53:02;;;;;;;;;11.25;7.75;;;;;14.94;63.50;101999.03;5058747;28;45375;-66
2022/05/28 01:55:29;;;;;;;;;10.50;8.00;;;;;14.88;63.70;101997.44;5058052;28;45347;-70
2022/05/28 01:57:55;;;;;;;;;8.00;6.25;;;;;14.83;65.53;102002.78;5059560;28;45492;-71
2022/05/28 02:00:21;;;;;;;;;7.00;6.75;;;;;14.80;64.02;102002.84;5058051;28;45389;-71
2022/05/28 02:02:46;;;;;;;;;7.75;6.25;;;;;14.85;63.97;102008.84;5057318;28;45425;-71
2022/05/28 02:05:12;;;;;;;;;8.00;7.00;;;;;14.85;63.88;102000.97;5057877;28;45621;-71
2022/05/28 02:07:38;;;;;;;;;13.75;8.00;;;;;14.83;64.49;102002.78;5057431;28;45884;-71
2022/05/28 02:10:09;;;;;;;;;14.75;10.00;;;;;14.77;64.40;102002.06;5057305;28;45630;-70
2022/05/28 02:12:53;;;;;;;;;9.00;8.00;;;;;14.69;64.80;101983.94;5059227;28;46191;-70
2022/05/28 02:15:28;;;;;;;;;13.75;7.75;;;;;14.68;64.94;101986.59;5057623;28;46675;-70
2022/05/28 02:17:58;;;;;;;;;13.25;9.25;;;;;14.64;65.10;101996.28;5056027;28;45367;-70
2022/05/28 02:20:24;;;;;;;;;13.50;11.75;;;;;14.59;65.62;101996.38;5057099;28;45786;-71
2022/05/28 02:22:59;;;;;;;;;7.00;4.00;;;;;14.55;65.22;101988.63;5057454;28;45390;-67
2022/05/28 02:25:50;;;;;;;;;8.75;7.75;;;;;14.57;65.05;101989.44;5057282;28;45456;-66
2022/05/28 02:28:16;;;;;;;;;7.50;7.25;;;;;14.60;64.83;101989.38;5070352;28;45486;-66
2022/05/28 02:31:04;;;;;;;;;13.50;12.25;;;;;14.61;65.16;101991.09;5059418;28;45444;-66
2022/05/28 02:33:33;;;;;;;;;14.25;10.75;;;;;14.59;65.53;101978.06;5059406;28;45275;-67
2022/05/28 02:35:59;;;;;;;;;12.50;9.75;;;;;14.57;65.40;101976.38;5059615;28;45305;-68
2022/05/28 02:38:25;;;;;;;;;9.25;8.00;;;;;14.57;65.21;101976.38;5059523;28;45256;-68
2022/05/28 02:40:52;;;;;;;;;10.25;8.00;;;;;14.56;65.84;101967.66;5059179;28;45715;-68
2022/05/28 02:43:17;;;;;;;;;10.75;6.50;;;;;14.58;65.32;101975.47;5059153;28;45927;-68
2022/05/28 02:45:42;;;;;;;;;13.75;9.25;;;;;14.60;65.40;101968.44;5059697;28;45264;-68
2022/05/28 02:48:08;;;;;;;;;8.00;8.00;;;;;14.55;66.45;101963.34;5059115;28;45557;-68
2022/05/28 02:50:34;;;;;;;;;9.75;9.50;;;;;14.50;65.79;101961.75;5059250;28;46164;-68
2022/05/28 02:52:59;;;;;;;;;11.00;10.75;;;;;14.49;65.92;101960.88;5058762;28;45588;-68
2022/05/28 02:55:25;;;;;;;;;11.75;7.75;;;;;14.46;65.90;101952.25;5059488;28;45502;-68
2022/05/28 02:57:50;;;;;;;;;12.50;9.75;;;;;14.48;66.04;101955.69;5059112;28;45247;-68
2022/05/28 03:00:17;;;;;;;;;13.00;11.25;;;;;14.50;66.00;101969.59;5059154;28;45321;-68
2022/05/28 03:02:43;;;;;;;;;10.75;8.00;;;;;14.48;66.94;101968.75;5058958;28;45240;-68
2022/05/28 03:05:11;;;;;;;;;11.50;11.25;;;;;14.43;66.46;101968.00;5059626;28;45280;-68
2022/05/28 03:07:36;;;;;;;;;11.25;11.25;;;;;14.38;66.63;101961.97;5091759;27;45740;-68
2022/05/28 03:10:02;;;;;;;;;11.25;9.75;;;;;14.36;67.67;101963.78;5059065;28;45461;-68
2022/05/28 03:12:27;;;;;;;;;13.25;12.00;;;;;14.28;68.23;101963.97;5058901;28;45405;-68
2022/05/28 03:14:53;;;;;;;;;18.00;10.00;;;;;14.24;68.07;101967.56;5059275;28;45329;-68
2022/05/28 03:17:18;;;;;;;;;13.00;11.00;;;;;14.20;69.09;101964.13;5058564;28;45379;-68
2022/05/28 03:19:43;;;;;;;;;12.50;9.75;;;;;14.12;68.25;101957.38;5058868;28;46366;-72
2022/05/28 03:22:09;;;;;;;;;12.25;10.25;;;;;14.14;68.11;101959.06;5057681;28;45296;-70
2022/05/28 03:24:34;;;;;;;;;12.25;10.00;;;;;14.15;68.00;101957.28;5059197;28;45403;-68
2022/05/28 03:26:59;;;;;;;;;11.75;10.00;;;;;14.15;67.83;101954.69;5058802;28;45339;-69
2022/05/28 03:29:25;;;;;;;;;11.00;9.25;;;;;14.17;67.66;101955.50;5059745;28;45379;-69
2022/05/28 03:31:51;;;;;;;;;11.00;10.00;;;;;14.18;67.90;101967.69;5062151;28;45157;-69
2022/05/28 03:34:16;;;;;;;;;11.75;10.50;;;;;14.13;67.64;101959.94;5062612;28;45617;-69
2022/05/28 03:36:41;;;;;;;;;12.25;11.75;;;;;14.16;67.99;101962.47;5059613;28;45348;-70
2022/05/28 03:39:07;;;;;;;;;14.00;10.50;;;;;14.08;70.11;101966.19;5061943;28;46056;-70
2022/05/28 03:41:33;;;;;;;;;12.25;10.00;;;;;13.97;71.60;101963.78;5061880;28;45266;-70
2022/05/28 03:43:59;;;;;;;;;12.25;10.00;;;;;13.85;71.04;101966.69;5061949;28;45513;-70
2022/05/28 03:46:29;;;;;;;;;11.50;9.50;;;;;13.78;71.20;101962.47;5061818;28;45599;-70
2022/05/28 03:48:59;;;;;;;;;13.25;11.00;;;;;13.76;70.19;101966.88;5061934;28;46533;-69
2022/05/28 03:51:25;;;;;;;;;17.50;12.75;;;;;13.78;70.65;101968.53;5061700;28;45273;-70
2022/05/28 03:53:51;;;;;;;;;14.00;12.75;;;;;13.76;70.25;101972.09;5062279;28;45333;-70
2022/05/28 03:56:16;;;;;;;;;12.00;11.00;;;;;13.72;71.21;101980.88;5060508;28;45492;-71
2022/05/28 03:58:42;;;;;;;;;14.25;10.75;;;;;13.67;70.66;101979.25;5060578;28;47097;-71
2022/05/28 04:01:07;;;;;;;;;11.75;10.00;;;;;13.65;71.37;101975.81;5060490;28;45748;-71
2022/05/28 04:03:34;;;;;;;;;12.50;11.00;;;;;13.61;70.16;101984.56;5061896;28;45342;-70
2022/05/28 04:06:00;;;;;;;;;11.25;11.00;;;;;13.56;71.79;101991.63;5061712;28;45276;-70
2022/05/28 04:08:26;;;;;;;;;12.75;11.25;;;;;13.51;70.61;101983.03;5061690;28;45507;-70
2022/05/28 04:10:51;;;;;;;;;11.50;11.50;;;;;13.45;71.57;101987.53;5061506;28;45226;-68
2022/05/28 04:13:17;;;;;;;;;13.75;8.50;;;;;13.39;71.35;101993.72;5061789;28;45248;-68
2022/05/28 04:15:42;;;;;;;;;17.75;10.00;;;;;13.38;71.20;101992.00;5061617;28;45259;-68
2022/05/28 04:18:07;;;;;;;;;13.75;10.00;;;;;13.40;71.17;101995.44;5061424;28;45281;-68
2022/05/28 04:20:34;;;;;;;;;10.50;8.25;;;;;13.38;71.64;101995.47;5061201;28;45247;-68
2022/05/28 04:23:00;;;;;;;;;15.25;12.00;;;;;13.35;70.89;101995.53;5061671;28;45400;-68
2022/05/28 04:25:25;;;;;;;;;10.75;9.00;;;;;13.33;70.72;101984.25;5061065;28;45432;-69
2022/05/28 04:27:50;;;;;;;;;12.50;9.75;;;;;13.37;71.06;101991.13;5061550;28;45397;-70
2022/05/28 04:30:16;;;;;;;;;14.00;12.00;;;;;13.35;71.53;101998.13;5061420;28;45504;-69
2022/05/28 04:32:41;;;;;;;;;14.50;9.25;;;;;13.36;70.65;101993.78;5061376;28;45277;-71
2022/05/28 04:35:08;;;;;;;;;15.75;12.75;;;;;13.36;70.71;101988.56;5061324;28;45443;-71
2022/05/28 04:37:33;;;;;;;;;13.00;11.00;;;;;13.34;71.31;101985.97;5061360;28;45527;-71
2022/05/28 04:39:58;;;;;;;;;12.75;10.00;;;;;13.37;71.55;101992.88;5060995;28;45389;-71
2022/05/28 04:42:24;;;;;;;;;13.00;11.00;;;;;13.43;71.47;102000.63;5060254;28;45506;-72
2022/05/28 04:44:49;;;;;;;;;15.00;11.00;;;;;13.46;71.62;101991.88;5061116;28;45341;-71
2022/05/28 04:47:15;;;;;;;;;12.00;10.50;;;;;13.53;70.97;101993.47;5060987;28;45263;-70
2022/05/28 04:49:40;;;;;;;;;18.25;11.50;;;;;13.63;70.74;101990.66;5060781;28;45484;-74
2022/05/28 04:52:06;;;;;;;;;12.25;10.00;;;;;13.72;70.39;101999.19;5061205;28;45254;-74
2022/05/28 04:54:31;;;;;;;;;13.25;11.50;;;;;13.77;70.28;101992.09;5060901;28;45348;-74
2022/05/28 04:56:57;;;;;;;;;10.25;10.25;;;;;13.85;70.12;102009.34;5060735;28;45362;-73
2022/05/28 04:59:22;;;;;;;;;13.50;11.00;;;;;13.88;69.94;102001.44;5060826;28;45225;-73
2022/05/28 05:01:47;;;;;;;;;10.75;10.75;;;;;13.94;70.48;102005.69;5060886;28;45258;-73
2022/05/28 05:04:12;;;;;;;;;12.50;11.50;;;;;13.97;69.79;102003.00;5060880;28;45402;-74
2022/05/28 05:06:38;;;;;;;;;15.50;10.00;;;;;14.03;69.54;102000.28;5060847;28;46293;-74
2022/05/28 05:09:03;;;;;;;;;11.75;11.25;;;;;14.12;69.62;102005.28;5060731;28;45211;-75
2022/05/28 05:11:28;;;;;;;;;13.50;9.25;;;;;14.16;69.78;102006.94;5060704;28;45403;-74
2022/05/28 05:13:54;;;;;;;;;14.75;12.50;;;;;14.15;69.54;101999.97;5060668;28;45359;-75
2022/05/28 05:16:19;;;;;;;;;12.25;10.00;;;;;14.17;69.38;102011.25;5060762;28;45378;-76
2022/05/28 05:18:45;;;;;;;;;12.50;11.25;;;;;14.20;69.19;102005.97;5060547;28;45506;-76
2022/05/28 05:21:13;;;;;;;;;11.75;11.75;;;;;14.25;69.01;102003.25;5060296;28;45350;-74
2022/05/28 05:23:42;;;;;;;;;12.75;12.75;;;;;14.29;68.81;101995.31;5060684;28;45416;-74
2022/05/28 05:26:17;;;;;;;;;13.00;11.50;;;;;14.37;68.44;102012.56;5047013;28;45624;-73
2022/05/28 05:28:42;;;;;;;;;14.25;10.75;;;;;14.40;68.78;102009.88;5060378;28;45263;-68
2022/05/28 05:31:07;;;;;;;;;9.50;7.00;;;;;14.47;68.43;102008.91;5060790;28;45430;-73
2022/05/28 05:33:33;;;;;;;;;12.50;11.25;;;;;14.47;68.23;102001.06;5060157;28;45232;-70
2022/05/28 05:35:58;;;;;;;;;14.75;12.25;;;;;14.51;68.20;102000.06;5092692;27;45929;-71
2022/05/28 05:38:24;;;;;;;;;13.25;11.25;;;;;14.58;68.21;102002.50;5060384;28;45254;-69
2022/05/28 05:40:51;;;;;;;;;12.25;11.25;;;;;14.64;68.06;102006.75;5060138;28;45441;-70
2022/05/28 05:43:17;;;;;;;;;12.00;9.00;;;;;14.62;67.73;101992.84;5059921;28;45421;-70
2022/05/28 05:45:49;;;;;;;;;13.25;10.25;;;;;14.67;67.87;101990.09;5060055;28;45372;-69
2022/05/28 05:48:15;;;;;;;;;12.75;10.00;;;;;14.71;67.72;101996.97;5059863;28;45331;-70
2022/05/28 05:50:40;;;;;;;;;14.00;11.50;;;;;14.72;67.50;101991.72;5060047;28;45497;-70
2022/05/28 05:53:06;;;;;;;;;12.00;11.00;;;;;14.80;67.78;102005.44;5059624;28;45316;-70
2022/05/28 05:55:31;;;;;;;;;13.75;13.75;;;;;14.87;68.19;102009.66;5059800;28;45432;-70
2022/05/28 05:57:57;;;;;;;;;14.00;11.75;;;;;14.90;67.77;102012.19;5059498;28;45458;-70
2022/05/28 06:00:22;;;;;;;;;12.50;9.50;;;;;14.95;67.77;102011.22;5059779;28;45488;-69
2022/05/28 06:02:48;;;;;;;;;11.75;8.75;;;;;14.96;67.45;102007.69;5059568;28;45314;-69
2022/05/28 06:05:13;;;;;;;;;11.50;11.00;;;;;14.91;67.62;102005.19;5059788;28;46273;-71
2022/05/28 06:07:38;;;;;;;;;13.50;11.00;;;;;14.90;67.42;102001.72;5059929;28;45284;-67
2022/05/28 06:10:07;;;;;;;;;15.50;11.75;;;;;14.94;67.54;102019.97;5057716;28;45336;-67
2022/05/28 06:12:32;;;;;;;;;11.75;11.50;;;;;14.96;67.76;102016.41;5058857;28;45291;-67
2022/05/28 06:14:58;;;;;;;;;6.75;6.75;;;;;15.00;67.75;102019.78;5058711;28;46650;-68
2022/05/28 06:17:23;;;;;;;;;14.50;12.25;;;;;14.97;67.74;102007.66;5058858;28;45262;-67
2022/05/28 06:19:48;;;;;;;;;15.00;12.50;;;;;15.07;67.84;102021.38;5059004;28;46467;-67
2022/05/28 06:22:14;;;;;;;;;13.75;8.50;;;;;15.07;68.03;102017.00;5058886;28;45437;-66
2022/05/28 06:24:39;;;;;;;;;15.25;10.25;;;;;15.07;67.80;102008.28;5058827;28;46317;-68
2022/05/28 06:27:05;;;;;;;;;14.75;13.75;;;;;15.18;67.27;102021.94;5058664;28;45430;-69
2022/05/28 06:29:30;;;;;;;;;15.75;12.50;;;;;15.16;67.62;102018.50;5059829;28;45556;-65
2022/05/28 06:31:55;;;;;;;;;9.25;7.25;;;;;15.21;67.91;102019.25;5058876;28;45384;-67
2022/05/28 06:34:21;;;;;;;;;13.00;11.00;;;;;15.26;68.23;102025.25;5057991;28;48191;-67
2022/05/28 06:36:46;;;;;;;;;11.00;9.50;;;;;15.31;67.82;102009.41;5090993;27;45508;-66
2022/05/28 06:39:13;;;;;;;;;14.25;8.00;;;;;15.36;68.10;102007.50;5058399;28;45335;-65
2022/05/28 06:41:38;;;;;;;;;15.75;13.00;;;;;15.40;68.12;102017.84;5059116;28;45299;-65
2022/05/28 06:44:04;;;;;;;;;10.25;9.50;;;;;15.42;68.40;102012.59;5058023;28;45479;-66
2022/05/28 06:46:29;;;;;;;;;13.25;11.50;;;;;15.45;68.58;102009.88;5058699;28;45434;-66
2022/05/28 06:48:54;;;;;;;;;15.25;9.50;;;;;15.44;68.34;102011.66;5059261;28;45498;-66
2022/05/28 06:51:20;;;;;;;;;13.00;12.00;;;;;15.42;69.18;102021.31;5058872;28;45524;-67
2022/05/28 06:53:48;;;;;;;;;17.50;13.75;;;;;15.37;68.75;102022.31;5057482;28;45362;-67
2022/05/28 06:56:16;;;;;;;;;12.25;9.50;;;;;15.37;69.25;102020.56;5054489;28;45908;-67
2022/05/28 06:58:45;;;;;;;;;13.50;12.75;;;;;15.46;70.11;102011.59;5059318;28;45402;-67
2022/05/28 07:01:16;;;;;;;;;15.00;14.00;;;;;15.52;69.16;102020.16;5058878;28;45604;-67
2022/05/28 07:03:43;;;;;;;;;13.50;12.50;;;;;15.54;68.54;102012.25;5058907;28;46473;-67
2022/05/28 07:06:10;;;;;;;;;16.50;12.50;;;;;15.54;68.91;102009.63;5062342;28;45264;-67
2022/05/28 07:08:35;;;;;;;;;19.75;14.00;;;;;15.60;68.63;102006.84;5062550;28;45269;-67
2022/05/28 07:11:02;;;;;;;;;16.25;14.25;;;;;15.66;69.37;101997.97;5062034;28;45481;-66
2022/05/28 07:13:29;;;;;;;;;14.75;11.25;;;;;15.77;68.97;102011.63;5062352;28;45645;-68
2022/05/28 07:15:54;;;;;;;;;17.00;10.50;;;;;15.90;68.37;102009.50;5062520;28;45233;-67
2022/05/28 07:18:21;;;;;;;;;17.50;12.25;;;;;16.01;68.15;102004.78;5061147;28;45282;-64
2022/05/28 07:20:46;;;;;;;;;18.75;15.00;;;;;16.15;68.00;101999.16;5061869;28;45545;-65
2022/05/28 07:23:15;;;;;;;;;17.75;14.75;;;;;16.27;67.48;102001.41;5095022;27;47175;-66
2022/05/28 07:25:42;;;;;;;;;11.50;10.25;;;;;16.40;67.31;101992.22;5062056;28;45744;-66
2022/05/28 07:28:28;;;;;;;;;15.50;11.50;;;;;16.50;67.02;101995.44;5060798;28;45269;-65
2022/05/28 07:31:02;;;;;;;;;18.00;11.50;;;;;16.65;66.71;101985.28;5062134;28;45300;-66
2022/05/28 07:33:30;;;;;;;;;12.75;11.75;;;;;16.72;66.02;101986.84;5061086;28;45336;-66
2022/05/28 07:35:57;;;;;;;;;15.25;13.25;;;;;16.78;66.36;101988.38;5062036;28;45732;-66
2022/05/28 07:38:25;;;;;;;;;12.00;9.75;;;;;16.90;65.93;101987.13;5059704;28;45827;-66
2022/05/28 07:40:52;;;;;;;;;14.00;14.00;;;;;16.86;65.04;101981.13;5061500;28;45323;-65
2022/05/28 07:43:18;;;;;;;;;19.75;12.25;;;;;16.92;64.94;101987.94;5061426;28;45609;-67
2022/05/28 07:45:45;;;;;;;;;16.00;12.00;;;;;16.99;64.81;101982.41;5060352;28;45307;-65
2022/05/28 07:48:12;;;;;;;;;17.25;14.50;;;;;17.15;64.65;101976.63;5059425;28;45533;-63
2022/05/28 07:50:38;;;;;;;;;19.50;16.50;;;;;17.25;63.93;101981.53;5059393;28;45387;-64
2022/05/28 07:53:04;;;;;;;;;13.25;10.25;;;;;17.32;63.81;101988.25;5059427;28;45669;-65
2022/05/28 07:55:30;;;;;;;;;13.75;11.75;;;;;17.39;63.51;101985.41;5059314;28;45380;-65
2022/05/28 07:57:56;;;;;;;;;19.75;16.50;;;;;17.47;63.13;101980.75;5059082;28;45469;-64
2022/05/28 08:00:21;;;;;;;;;20.75;16.75;;;;;17.53;62.85;101984.00;5059500;28;45542;-65
2022/05/28 08:02:47;;;;;;;;;24.00;15.75;;;;;17.58;62.73;101976.78;5060397;28;45245;-64
2022/05/28 08:05:12;;;;;;;;;20.50;15.00;;;;;17.70;62.80;101970.28;5061109;27;45279;-65
2022/05/28 08:07:38;;;;;;;;;13.75;11.50;;;;;17.70;62.21;101974.69;5061273;28;45490;-66
2022/05/28 08:10:04;;;;;;;;;17.75;15.00;;;;;17.67;61.40;101983.50;5061448;28;45213;-65
2022/05/28 08:12:30;;;;;;;;;24.00;14.25;;;;;17.60;61.71;101974.09;5061089;28;45275;-64
2022/05/28 08:14:55;;;;;;;;;21.25;14.25;;;;;17.71;61.63;101986.91;5061369;28;45406;-64
2022/05/28 08:17:21;;;;;;;;;20.50;16.25;;;;;17.73;60.78;101974.56;5061132;28;45345;-63
2022/05/28 08:19:46;;;;;;;;;16.00;15.00;;;;;17.81;61.20;101983.00;5061141;28;45337;-65
2022/05/28 08:24:56;;;;;;;;;15.75;15.75;;;;;18.06;60.43;101977.69;5061143;28;45830;-68
2022/05/28 08:27:21;;;;;;;;;15.50;13.25;;;;;18.11;60.41;101983.63;5061313;28;45343;-63
2022/05/28 08:29:47;;;;;;;;;13.75;12.50;;;;;18.13;60.35;101979.16;5061428;28;45485;-63
2022/05/28 08:32:16;;;;;;;;;15.75;14.75;;;;;18.17;59.26;101986.84;5076397;28;47012;-64
2022/05/28 08:34:42;;;;;;;;;19.25;15.00;;;;;18.11;59.51;101983.63;5061225;28;45219;-64
2022/05/28 08:37:07;;;;;;;;;17.75;15.50;;;;;18.22;59.68;101981.44;5061153;28;45170;-64
2022/05/28 08:39:34;;;;;;;;;17.50;17.50;;;;;18.29;59.28;101976.78;5061261;28;45464;-67
2022/05/28 08:41:59;;;;;;;;;18.50;18.00;;;;;18.37;59.27;101978.16;5060746;28;46523;-65
2022/05/28 08:44:28;;;;;;;;;16.50;15.25;;;;;18.43;58.47;101982.34;5060918;28;45228;-63
2022/05/28 08:46:58;;;;;;;;;15.75;13.75;;;;;18.42;58.28;101972.72;5060716;28;45299;-62
2022/05/28 08:49:27;;;;;;;;;17.25;11.00;;;;;18.33;57.74;101973.94;5060906;28;45290;-63
2022/05/28 08:51:52;;;;;;;;;13.50;13.25;;;;;18.38;57.49;101974.59;5060535;28;45307;-63
2022/05/28 08:54:40;;;;;;;;;10.33;9.00;;;;;18.53;56.53;101967.88;5061037;28;45338;-62
2022/05/28 08:57:17;;;;;;;;;17.75;13.00;;;;;18.65;57.55;101971.81;5061031;28;45306;-61
2022/05/28 08:59:46;;;;;;;;;14.75;10.25;;;;;18.68;57.18;101963.78;5060826;28;45222;-61
2022/05/28 09:02:20;;;;;;;;;14.25;12.00;;;;;18.72;57.26;101968.00;5060883;28;45309;-61
2022/05/28 09:04:47;;;;;;;;;13.50;12.00;;;;;18.81;55.39;101960.56;5060585;28;45377;-61
2022/05/28 09:07:14;;;;;;;;;13.00;11.75;;;;;18.94;55.50;101953.00;5061068;28;45430;-65
2022/05/28 09:09:42;;;;;;;;;16.25;12.75;;;;;19.06;54.68;101947.22;5060368;28;45529;-65
2022/05/28 09:12:16;;;;;;;;;15.00;11.75;;;;;19.20;55.18;101943.94;5060533;28;45366;-65
2022/05/28 09:14:41;;;;;;;;;13.25;12.75;;;;;19.23;55.10;101946.47;5060825;28;45520;-64
2022/05/28 09:17:24;;;;;;;;;12.00;12.00;;;;;19.36;55.02;101936.22;5060356;28;45271;-65
2022/05/28 09:19:51;;;;;;;;;13.50;10.00;;;;;19.56;54.44;101932.72;5059662;28;45662;-65
2022/05/28 09:22:18;;;;;;;;;15.50;12.00;;;;;19.79;54.49;101943.03;5060477;28;46541;-65
2022/05/28 09:24:44;;;;;;;;;12.00;10.00;;;;;19.89;53.44;101951.41;5060480;28;45596;-64
2022/05/28 09:27:29;;;;;;;;;15.75;11.25;;;;;19.87;52.94;101947.97;5059858;28;45247;-65
2022/05/28 09:30:11;;;;;;;;;9.75;8.75;;;;;19.87;51.93;101947.97;5058967;28;45855;-64
2022/05/28 09:32:45;;;;;;;;;11.75;9.25;;;;;19.80;51.35;101939.47;5060287;28;45343;-65
2022/05/28 09:35:20;;;;;;;;;13.50;11.75;;;;;19.86;51.29;101941.00;5060260;28;45174;-65
2022/05/28 09:38:14;;;;;;;;;9.25;8.00;;;;;19.93;50.88;101937.97;5060964;28;45301;-65
2022/05/28 09:40:51;;;;;;;;;11.25;8.00;;;;;20.15;50.37;101936.94;5060114;28;45293;-65
2022/05/28 09:43:23;;;;;;;;;13.25;9.00;;;;;20.28;51.28;101923.09;5059726;28;46452;-66
2022/05/28 09:46:08;;;;;;;;;11.75;10.00;;;;;20.59;50.91;101917.16;5060140;28;45367;-64
2022/05/28 09:48:33;;;;;;;;;12.50;8.25;;;;;20.83;47.57;101916.84;5059522;28;45503;-65
2022/05/28 09:50:59;;;;;;;;;12.25;10.00;;;;;20.96;48.92;101909.97;5058432;28;45867;-65
2022/05/28 09:56:20;;;;;;;;;7.75;7.75;;;;;21.37;48.42;101896.38;5059784;28;45358;-65
2022/05/28 09:58:46;;;;;;;;;10.25;9.00;;;;;21.45;48.04;101892.41;5092636;27;45205;-65
2022/05/28 10:01:25;;;;;;;;;7.50;7.25;;;;;21.54;47.28;101894.53;5059697;28;45522;-66
2022/05/28 10:06:49;;;;;;;;;11.25;7.75;;;;;21.79;45.91;101879.91;5048934;28;45714;-66
2022/05/28 10:09:34;;;;;;;;;5.75;5.75;;;;;21.72;45.80;101891.81;5059772;28;45350;-78
2022/05/28 10:12:10;;;;;;;;;8.25;6.75;;;;;21.47;45.29;101890.53;5059655;28;45555;-77
2022/05/28 10:14:35;;;;;;;;;7.50;7.25;;;;;21.24;44.70;101891.78;5059918;28;45494;-74
2022/05/28 10:17:03;;;;;;;;;6.25;5.25;;;;;21.06;45.07;101881.28;5059429;28;45193;-75
2022/05/28 10:19:31;;;;;;;;;8.50;7.00;;;;;20.88;45.16;101886.59;5059605;28;45511;-65
2022/05/28 10:22:00;;;;;;;;;7.75;6.25;;;;;20.81;45.77;101884.34;5059547;28;45351;-68
2022/05/28 10:24:34;;;;;;;;;9.75;6.00;;;;;20.88;45.67;101878.69;5058186;28;46551;-69
2022/05/28 10:27:01;;;;;;;;;6.75;3.75;;;;;20.92;45.56;101882.00;5059198;28;45689;-66
2022/05/28 10:29:41;;;;;;;;;7.00;7.00;;;;;20.91;46.19;101881.16;5092638;27;45433;-67
2022/05/28 10:32:24;;;;;;;;;6.75;6.50;;;;;20.81;44.46;101877.28;5059400;28;45323;-74
2022/05/28 10:35:04;;;;;;;;;6.75;6.00;;;;;20.80;45.18;101875.56;5059211;28;45487;-68
2022/05/28 10:37:30;;;;;;;;;8.75;6.50;;;;;20.89;45.37;101876.88;5059461;28;45445;-66
2022/05/28 10:40:12;;;;;;;;;9.50;4.75;;;;;21.08;45.49;101880.28;5060585;28;45359;-67
2022/05/28 10:42:37;;;;;;;;;8.00;6.00;;;;;21.37;43.71;101878.72;5062999;28;45494;-70
2022/05/28 10:45:06;;;;;;;;;5.50;5.25;;;;;21.51;44.44;101870.88;5062805;28;46590;-68
2022/05/28 10:47:59;;;;;;;;;4.00;3.25;;;;;21.47;43.17;101872.00;5062503;28;45263;-71
2022/05/28 10:50:48;;;;;;;;;7.75;6.00;;;;;21.42;43.62;101873.16;5062937;28;45334;-66
2022/05/28 10:53:22;;;;;;;;;5.50;3.50;;;;;21.31;41.94;101873.78;5057809;28;45491;-68
2022/05/28 10:56:06;;;;;;;;;6.50;4.50;;;;;21.14;42.01;101869.34;5054189;28;46684;-68
2022/05/28 10:58:37;;;;;;;;;5.50;5.00;;;;;21.20;41.44;101849.66;5062477;28;45367;-68
2022/05/28 11:01:11;;;;;;;;;4.00;4.00;;;;;21.23;42.31;101847.72;5062664;28;45332;-68
2022/05/28 11:04:05;;;;;;;;;6.00;5.00;;;;;21.19;42.30;101855.88;5062448;28;45342;-68
2022/05/28 11:06:55;;;;;;;;;4.50;4.50;;;;;21.00;42.30;101845.44;5062588;28;45625;-66
2022/05/28 11:09:42;;;;;;;;;5.50;4.25;;;;;21.00;42.01;101860.44;5058020;28;45651;-67
2022/05/28 11:12:16;;;;;;;;;6.00;4.75;;;;;20.90;42.74;101849.53;5062427;28;45320;-66
2022/05/28 11:14:47;;;;;;;;;3.25;3.25;;;;;20.82;41.43;101849.94;5062239;28;45248;-66
2022/05/28 11:17:18;;;;;;;;;6.00;5.50;;;;;20.69;40.71;101848.00;5061992;28;46457;-65
2022/05/28 11:19:44;;;;;;;;;8.00;5.00;;;;;20.61;41.74;101846.59;5061169;28;45702;-70
2022/05/28 11:22:31;;;;;;;;;6.25;4.25;;;;;20.68;41.79;101849.81;5060038;28;45420;-71
2022/05/28 11:25:04;;;;;;;;;5.00;4.00;;;;;20.74;41.46;101841.53;5056216;28;45450;-71
2022/05/28 11:27:29;;;;;;;;;5.75;5.00;;;;;20.73;41.63;101839.84;5062221;28;47266;-74
2022/05/28 11:30:17;;;;;;;;;7.25;3.50;;;;;20.69;42.11;101845.38;5062377;28;45230;-74